sensor_id;sensor_type;location;lat;lon;timestamp;P1;durP1;ratioP1;P2;durP2;ratioP2
30571;SDS011;17348;50.948;10.696;2022-09-12T00:02:13;11.85;;;6.43;;
30571;SDS011;17348;50.948;10.696;2022-09-12T00:05:15;14.02;;;6.94;;
30571;SDS011;17348;50.948;10.696;2022-09-12T00:08:18;11.07;;;6.60;;
30571;SDS011;17348;50.948;10.696;2022-09-12T00:11:20;13.35;;;6.53;;
30571;SDS011;17348;50.948;10.696;2022-09-12T00:14:24;13.07;;;7.10;;
30571;SDS011;17348;50.948;10.696;2022-09-12T00:17:26;15.07;;;7.68;;
30571;SDS011;17348;50.948;10.696;2022-09-12T00:20:28;21.52;;;7.22;;
30571;SDS011;17348;50.948;10.696;2022-09-12T00:23:31;13.07;;;6.75;;
30571;SDS011;17348;50.948;10.696;2022-09-12T00:26:33;13.45;;;6.57;;
30571;SDS011;17348;50.948;10.696;2022-09-12T00:29:37;13.45;;;6.93;;
30571;SDS011;17348;50.948;10.696;2022-09-12T00:32:39;12.70;;;6.60;;
30571;SDS011;17348;50.948;10.696;2022-09-12T00:35:42;15.45;;;7.07;;
30571;SDS011;17348;50.948;10.696;2022-09-12T00:38:45;12.02;;;6.80;;
30571;SDS011;17348;50.948;10.696;2022-09-12T00:41:48;13.50;;;6.57;;
30571;SDS011;17348;50.948;10.696;2022-09-12T00:44:52;11.90;;;6.95;;
30571;SDS011;17348;50.948;10.696;2022-09-12T00:47:54;16.17;;;7.05;;
30571;SDS011;17348;50.948;10.696;2022-09-12T00:50:59;13.18;;;6.95;;
30571;SDS011;17348;50.948;10.696;2022-09-12T00:54:04;9.88;;;6.18;;
30571;SDS011;17348;50.948;10.696;2022-09-12T00:57:09;11.80;;;6.20;;
30571;SDS011;17348;50.948;10.696;2022-09-12T01:00:17;13.60;;;6.35;;
30571;SDS011;17348;50.948;10.696;2022-09-12T01:03:21;13.55;;;6.65;;
30571;SDS011;17348;50.948;10.696;2022-09-12T01:06:26;13.85;;;6.75;;
30571;SDS011;17348;50.948;10.696;2022-09-12T01:09:30;18.23;;;6.10;;
30571;SDS011;17348;50.948;10.696;2022-09-12T01:12:33;11.95;;;6.35;;
30571;SDS011;17348;50.948;10.696;2022-09-12T01:15:39;12.80;;;6.22;;
30571;SDS011;17348;50.948;10.696;2022-09-12T01:18:54;13.45;;;6.20;;
30571;SDS011;17348;50.948;10.696;2022-09-12T01:22:10;12.75;;;5.68;;
30571;SDS011;17348;50.948;10.696;2022-09-12T01:25:30;10.05;;;5.35;;
30571;SDS011;17348;50.948;10.696;2022-09-12T01:28:51;12.02;;;6.15;;
30571;SDS011;17348;50.948;10.696;2022-09-12T01:32:04;15.73;;;6.38;;
30571;SDS011;17348;50.948;10.696;2022-09-12T01:35:17;14.02;;;5.90;;
30571;SDS011;17348;50.948;10.696;2022-09-12T01:38:25;12.43;;;5.75;;
30571;SDS011;17348;50.948;10.696;2022-09-12T01:41:37;14.13;;;5.95;;
30571;SDS011;17348;50.948;10.696;2022-09-12T01:44:47;11.93;;;5.88;;
30571;SDS011;17348;50.948;10.696;2022-09-12T01:47:57;12.95;;;6.05;;
30571;SDS011;17348;50.948;10.696;2022-09-12T01:51:06;11.20;;;6.68;;
30571;SDS011;17348;50.948;10.696;2022-09-12T01:54:17;8.93;;;5.68;;
30571;SDS011;17348;50.948;10.696;2022-09-12T01:57:24;10.68;;;5.03;;
30571;SDS011;17348;50.948;10.696;2022-09-12T02:00:29;12.60;;;6.05;;
30571;SDS011;17348;50.948;10.696;2022-09-12T02:03:36;12.20;;;5.57;;
30571;SDS011;17348;50.948;10.696;2022-09-12T02:06:45;11.23;;;5.85;;
30571;SDS011;17348;50.948;10.696;2022-09-12T02:09:53;11.93;;;5.85;;
30571;SDS011;17348;50.948;10.696;2022-09-12T02:13:00;10.07;;;5.85;;
30571;SDS011;17348;50.948;10.696;2022-09-12T02:16:08;15.52;;;6.00;;
30571;SDS011;17348;50.948;10.696;2022-09-12T02:19:15;10.02;;;4.85;;
30571;SDS011;17348;50.948;10.696;2022-09-12T02:22:20;12.15;;;5.65;;
30571;SDS011;17348;50.948;10.696;2022-09-12T02:25:24;11.43;;;6.25;;
30571;SDS011;17348;50.948;10.696;2022-09-12T02:28:30;14.45;;;6.10;;
30571;SDS011;17348;50.948;10.696;2022-09-12T02:31:36;14.68;;;6.63;;
30571;SDS011;17348;50.948;10.696;2022-09-12T02:34:46;15.50;;;5.68;;
30571;SDS011;17348;50.948;10.696;2022-09-12T02:38:00;12.32;;;5.68;;
30571;SDS011;17348;50.948;10.696;2022-09-12T02:41:06;11.43;;;5.78;;
30571;SDS011;17348;50.948;10.696;2022-09-12T02:44:09;10.48;;;6.18;;
30571;SDS011;17348;50.948;10.696;2022-09-12T02:47:13;11.80;;;6.97;;
30571;SDS011;17348;50.948;10.696;2022-09-12T02:50:20;13.98;;;6.57;;
30571;SDS011;17348;50.948;10.696;2022-09-12T02:53:22;12.55;;;6.13;;
30571;SDS011;17348;50.948;10.696;2022-09-12T02:56:27;10.50;;;5.53;;
30571;SDS011;17348;50.948;10.696;2022-09-12T02:59:31;10.30;;;5.78;;
30571;SDS011;17348;50.948;10.696;2022-09-12T03:02:37;10.43;;;5.00;;
30571;SDS011;17348;50.948;10.696;2022-09-12T03:05:52;11.00;;;5.40;;
30571;SDS011;17348;50.948;10.696;2022-09-12T03:08:59;14.57;;;6.22;;
30571;SDS011;17348;50.948;10.696;2022-09-12T03:12:12;14.32;;;5.13;;
30571;SDS011;17348;50.948;10.696;2022-09-12T03:15:27;11.40;;;5.75;;
30571;SDS011;17348;50.948;10.696;2022-09-12T03:18:40;12.30;;;6.07;;
30571;SDS011;17348;50.948;10.696;2022-09-12T03:21:54;13.38;;;6.90;;
30571;SDS011;17348;50.948;10.696;2022-09-12T03:25:05;11.27;;;5.55;;
30571;SDS011;17348;50.948;10.696;2022-09-12T03:31:17;11.95;;;5.75;;
30571;SDS011;17348;50.948;10.696;2022-09-12T03:34:20;16.13;;;5.78;;
30571;SDS011;17348;50.948;10.696;2022-09-12T03:37:25;11.20;;;5.43;;
30571;SDS011;17348;50.948;10.696;2022-09-12T03:40:30;21.77;;;6.10;;
30571;SDS011;17348;50.948;10.696;2022-09-12T03:43:36;14.15;;;5.75;;
30571;SDS011;17348;50.948;10.696;2022-09-12T03:46:38;11.05;;;5.40;;
30571;SDS011;17348;50.948;10.696;2022-09-12T03:49:40;12.98;;;5.35;;
30571;SDS011;17348;50.948;10.696;2022-09-12T03:52:44;11.55;;;6.35;;
30571;SDS011;17348;50.948;10.696;2022-09-12T03:55:46;10.77;;;5.32;;
30571;SDS011;17348;50.948;10.696;2022-09-12T03:58:51;10.68;;;5.80;;
30571;SDS011;17348;50.948;10.696;2022-09-12T04:01:53;9.73;;;5.63;;
30571;SDS011;17348;50.948;10.696;2022-09-12T04:04:56;9.40;;;4.93;;
30571;SDS011;17348;50.948;10.696;2022-09-12T04:07:59;15.35;;;5.53;;
30571;SDS011;17348;50.948;10.696;2022-09-12T04:11:02;10.02;;;5.30;;
30571;SDS011;17348;50.948;10.696;2022-09-12T04:14:05;11.13;;;5.18;;
30571;SDS011;17348;50.948;10.696;2022-09-12T04:17:07;11.30;;;5.65;;
30571;SDS011;17348;50.948;10.696;2022-09-12T04:20:09;10.38;;;5.15;;
30571;SDS011;17348;50.948;10.696;2022-09-12T04:23:13;11.48;;;5.68;;
30571;SDS011;17348;50.948;10.696;2022-09-12T04:26:15;15.20;;;6.50;;
30571;SDS011;17348;50.948;10.696;2022-09-12T04:29:18;12.05;;;5.95;;
30571;SDS011;17348;50.948;10.696;2022-09-12T04:32:20;12.10;;;6.22;;
30571;SDS011;17348;50.948;10.696;2022-09-12T04:35:26;15.65;;;6.50;;
30571;SDS011;17348;50.948;10.696;2022-09-12T04:38:33;17.40;;;6.35;;
30571;SDS011;17348;50.948;10.696;2022-09-12T04:41:37;13.02;;;5.60;;
30571;SDS011;17348;50.948;10.696;2022-09-12T04:44:40;13.35;;;6.20;;
30571;SDS011;17348;50.948;10.696;2022-09-12T04:47:43;14.60;;;6.77;;
30571;SDS011;17348;50.948;10.696;2022-09-12T04:50:46;18.65;;;5.22;;
30571;SDS011;17348;50.948;10.696;2022-09-12T04:53:50;14.93;;;5.82;;
30571;SDS011;17348;50.948;10.696;2022-09-12T04:56:53;10.27;;;5.22;;
30571;SDS011;17348;50.948;10.696;2022-09-12T04:59:55;9.32;;;4.70;;
30571;SDS011;17348;50.948;10.696;2022-09-12T05:02:58;13.65;;;5.72;;
30571;SDS011;17348;50.948;10.696;2022-09-12T05:06:01;13.18;;;5.28;;
30571;SDS011;17348;50.948;10.696;2022-09-12T05:09:06;12.43;;;6.32;;
30571;SDS011;17348;50.948;10.696;2022-09-12T05:12:10;11.20;;;5.45;;
30571;SDS011;17348;50.948;10.696;2022-09-12T05:15:14;18.05;;;6.35;;
30571;SDS011;17348;50.948;10.696;2022-09-12T05:18:16;11.50;;;6.10;;
30571;SDS011;17348;50.948;10.696;2022-09-12T05:21:19;13.50;;;5.68;;
30571;SDS011;17348;50.948;10.696;2022-09-12T05:24:25;11.23;;;6.68;;
30571;SDS011;17348;50.948;10.696;2022-09-12T05:27:27;12.02;;;6.07;;
30571;SDS011;17348;50.948;10.696;2022-09-12T05:30:29;14.77;;;6.55;;
30571;SDS011;17348;50.948;10.696;2022-09-12T05:33:32;12.07;;;5.65;;
30571;SDS011;17348;50.948;10.696;2022-09-12T05:36:35;9.68;;;5.28;;
30571;SDS011;17348;50.948;10.696;2022-09-12T05:39:39;13.95;;;6.28;;
30571;SDS011;17348;50.948;10.696;2022-09-12T05:42:41;12.30;;;5.28;;
30571;SDS011;17348;50.948;10.696;2022-09-12T05:45:43;16.00;;;6.28;;
30571;SDS011;17348;50.948;10.696;2022-09-12T05:48:46;13.68;;;6.18;;
30571;SDS011;17348;50.948;10.696;2022-09-12T05:51:49;14.68;;;6.20;;
30571;SDS011;17348;50.948;10.696;2022-09-12T05:54:53;18.63;;;6.57;;
30571;SDS011;17348;50.948;10.696;2022-09-12T05:57:55;15.23;;;6.50;;
30571;SDS011;17348;50.948;10.696;2022-09-12T06:01:00;13.50;;;5.82;;
30571;SDS011;17348;50.948;10.696;2022-09-12T06:04:04;12.88;;;5.75;;
30571;SDS011;17348;50.948;10.696;2022-09-12T06:07:07;15.13;;;6.00;;
30571;SDS011;17348;50.948;10.696;2022-09-12T06:10:11;11.75;;;5.55;;
30571;SDS011;17348;50.948;10.696;2022-09-12T06:13:13;12.15;;;6.40;;
30571;SDS011;17348;50.948;10.696;2022-09-12T06:16:16;9.32;;;5.75;;
30571;SDS011;17348;50.948;10.696;2022-09-12T06:19:19;12.55;;;6.68;;
30571;SDS011;17348;50.948;10.696;2022-09-12T06:22:24;16.65;;;6.82;;
30571;SDS011;17348;50.948;10.696;2022-09-12T06:25:28;11.73;;;6.35;;
30571;SDS011;17348;50.948;10.696;2022-09-12T06:28:30;14.30;;;6.47;;
30571;SDS011;17348;50.948;10.696;2022-09-12T06:31:35;10.25;;;5.50;;
30571;SDS011;17348;50.948;10.696;2022-09-12T06:34:38;10.45;;;6.13;;
30571;SDS011;17348;50.948;10.696;2022-09-12T06:37:42;12.82;;;5.63;;
30571;SDS011;17348;50.948;10.696;2022-09-12T06:40:46;13.60;;;6.30;;
30571;SDS011;17348;50.948;10.696;2022-09-12T06:43:48;15.00;;;6.95;;
30571;SDS011;17348;50.948;10.696;2022-09-12T06:46:51;14.48;;;6.82;;
30571;SDS011;17348;50.948;10.696;2022-09-12T06:49:53;13.82;;;7.00;;
30571;SDS011;17348;50.948;10.696;2022-09-12T06:52:56;17.15;;;6.60;;
30571;SDS011;17348;50.948;10.696;2022-09-12T06:56:00;12.07;;;5.43;;
30571;SDS011;17348;50.948;10.696;2022-09-12T06:59:04;15.23;;;6.20;;
30571;SDS011;17348;50.948;10.696;2022-09-12T07:02:07;15.15;;;5.60;;
30571;SDS011;17348;50.948;10.696;2022-09-12T07:05:09;16.85;;;7.35;;
30571;SDS011;17348;50.948;10.696;2022-09-12T07:08:12;13.98;;;6.57;;
30571;SDS011;17348;50.948;10.696;2022-09-12T07:11:16;13.73;;;6.30;;
30571;SDS011;17348;50.948;10.696;2022-09-12T07:14:20;14.40;;;6.90;;
30571;SDS011;17348;50.948;10.696;2022-09-12T07:17:22;11.23;;;6.15;;
30571;SDS011;17348;50.948;10.696;2022-09-12T07:20:25;17.80;;;6.13;;
30571;SDS011;17348;50.948;10.696;2022-09-12T07:23:27;13.70;;;6.70;;
30571;SDS011;17348;50.948;10.696;2022-09-12T07:26:31;13.18;;;6.07;;
30571;SDS011;17348;50.948;10.696;2022-09-12T07:29:33;12.57;;;6.93;;
30571;SDS011;17348;50.948;10.696;2022-09-12T07:32:35;17.85;;;5.65;;
30571;SDS011;17348;50.948;10.696;2022-09-12T07:35:38;13.27;;;6.50;;
30571;SDS011;17348;50.948;10.696;2022-09-12T07:38:40;11.07;;;6.07;;
30571;SDS011;17348;50.948;10.696;2022-09-12T07:41:44;13.82;;;6.53;;
30571;SDS011;17348;50.948;10.696;2022-09-12T07:44:46;16.70;;;5.85;;
30571;SDS011;17348;50.948;10.696;2022-09-12T07:47:52;15.57;;;7.05;;
30571;SDS011;17348;50.948;10.696;2022-09-12T07:50:57;20.58;;;6.35;;
30571;SDS011;17348;50.948;10.696;2022-09-12T07:54:00;16.60;;;7.00;;
30571;SDS011;17348;50.948;10.696;2022-09-12T07:57:04;16.27;;;6.72;;
30571;SDS011;17348;50.948;10.696;2022-09-12T08:00:07;13.85;;;6.95;;
30571;SDS011;17348;50.948;10.696;2022-09-12T08:03:10;15.70;;;7.13;;
30571;SDS011;17348;50.948;10.696;2022-09-12T08:06:13;14.05;;;6.38;;
30571;SDS011;17348;50.948;10.696;2022-09-12T08:09:16;11.45;;;6.38;;
30571;SDS011;17348;50.948;10.696;2022-09-12T08:12:20;13.40;;;6.47;;
30571;SDS011;17348;50.948;10.696;2022-09-12T08:15:22;13.18;;;6.65;;
30571;SDS011;17348;50.948;10.696;2022-09-12T08:18:25;15.23;;;7.63;;
30571;SDS011;17348;50.948;10.696;2022-09-12T08:21:28;15.05;;;6.10;;
30571;SDS011;17348;50.948;10.696;2022-09-12T08:24:31;14.43;;;6.38;;
30571;SDS011;17348;50.948;10.696;2022-09-12T08:27:35;13.65;;;6.70;;
30571;SDS011;17348;50.948;10.696;2022-09-12T08:30:37;16.20;;;6.85;;
30571;SDS011;17348;50.948;10.696;2022-09-12T08:33:39;14.75;;;6.70;;
30571;SDS011;17348;50.948;10.696;2022-09-12T08:36:42;14.88;;;6.45;;
30571;SDS011;17348;50.948;10.696;2022-09-12T08:39:44;15.50;;;6.95;;
30571;SDS011;17348;50.948;10.696;2022-09-12T08:42:51;12.98;;;6.32;;
30571;SDS011;17348;50.948;10.696;2022-09-12T08:46:04;11.85;;;5.95;;
30571;SDS011;17348;50.948;10.696;2022-09-12T08:49:13;13.25;;;6.22;;
30571;SDS011;17348;50.948;10.696;2022-09-12T08:52:23;14.23;;;7.07;;
30571;SDS011;17348;50.948;10.696;2022-09-12T08:55:29;17.80;;;7.60;;
30571;SDS011;17348;50.948;10.696;2022-09-12T08:58:36;18.65;;;6.00;;
30571;SDS011;17348;50.948;10.696;2022-09-12T09:01:41;11.25;;;5.93;;
30571;SDS011;17348;50.948;10.696;2022-09-12T09:04:46;12.10;;;6.40;;
30571;SDS011;17348;50.948;10.696;2022-09-12T09:07:56;10.40;;;5.55;;
30571;SDS011;17348;50.948;10.696;2022-09-12T09:11:14;11.38;;;5.72;;
30571;SDS011;17348;50.948;10.696;2022-09-12T09:14:36;16.90;;;6.35;;
30571;SDS011;17348;50.948;10.696;2022-09-12T09:17:50;13.13;;;6.13;;
30571;SDS011;17348;50.948;10.696;2022-09-12T09:20:56;13.93;;;5.05;;
30571;SDS011;17348;50.948;10.696;2022-09-12T09:24:01;8.88;;;4.75;;
30571;SDS011;17348;50.948;10.696;2022-09-12T09:27:09;9.27;;;5.70;;
30571;SDS011;17348;50.948;10.696;2022-09-12T09:30:19;12.40;;;5.50;;
30571;SDS011;17348;50.948;10.696;2022-09-12T09:33:22;9.40;;;4.55;;
30571;SDS011;17348;50.948;10.696;2022-09-12T09:36:31;10.13;;;4.65;;
30571;SDS011;17348;50.948;10.696;2022-09-12T09:39:44;11.93;;;4.70;;
30571;SDS011;17348;50.948;10.696;2022-09-12T09:42:55;7.53;;;3.30;;
30571;SDS011;17348;50.948;10.696;2022-09-12T09:46:03;9.27;;;3.92;;
30571;SDS011;17348;50.948;10.696;2022-09-12T09:49:06;4.93;;;3.42;;
30571;SDS011;17348;50.948;10.696;2022-09-12T09:52:13;8.85;;;3.72;;
30571;SDS011;17348;50.948;10.696;2022-09-12T09:55:19;8.20;;;3.03;;
30571;SDS011;17348;50.948;10.696;2022-09-12T09:58:28;5.60;;;3.17;;
30571;SDS011;17348;50.948;10.696;2022-09-12T10:01:33;7.35;;;3.55;;
30571;SDS011;17348;50.948;10.696;2022-09-12T10:04:38;9.00;;;3.47;;
30571;SDS011;17348;50.948;10.696;2022-09-12T10:07:48;6.15;;;3.67;;
30571;SDS011;17348;50.948;10.696;2022-09-12T10:10:55;5.40;;;2.67;;
30571;SDS011;17348;50.948;10.696;2022-09-12T10:13:59;8.32;;;3.40;;
30571;SDS011;17348;50.948;10.696;2022-09-12T10:17:20;7.13;;;2.50;;
30571;SDS011;17348;50.948;10.696;2022-09-12T10:20:29;8.50;;;2.95;;
30571;SDS011;17348;50.948;10.696;2022-09-12T10:23:34;5.00;;;2.40;;
30571;SDS011;17348;50.948;10.696;2022-09-12T10:26:40;7.78;;;3.10;;
30571;SDS011;17348;50.948;10.696;2022-09-12T10:29:52;7.93;;;2.55;;
30571;SDS011;17348;50.948;10.696;2022-09-12T10:32:58;4.63;;;2.58;;
30571;SDS011;17348;50.948;10.696;2022-09-12T10:36:07;7.55;;;2.85;;
30571;SDS011;17348;50.948;10.696;2022-09-12T10:39:10;7.65;;;2.33;;
30571;SDS011;17348;50.948;10.696;2022-09-12T10:45:46;10.88;;;2.58;;
30571;SDS011;17348;50.948;10.696;2022-09-12T10:48:50;4.57;;;2.15;;
30571;SDS011;17348;50.948;10.696;2022-09-12T10:52:16;8.13;;;2.45;;
30571;SDS011;17348;50.948;10.696;2022-09-12T10:55:23;3.38;;;2.40;;
30571;SDS011;17348;50.948;10.696;2022-09-12T10:58:35;4.05;;;2.10;;
30571;SDS011;17348;50.948;10.696;2022-09-12T11:01:44;2.78;;;1.88;;
30571;SDS011;17348;50.948;10.696;2022-09-12T11:04:53;7.88;;;2.22;;
30571;SDS011;17348;50.948;10.696;2022-09-12T11:08:05;5.05;;;1.98;;
30571;SDS011;17348;50.948;10.696;2022-09-12T11:11:24;2.85;;;1.63;;
30571;SDS011;17348;50.948;10.696;2022-09-12T11:14:54;2.35;;;1.65;;
30571;SDS011;17348;50.948;10.696;2022-09-12T11:18:04;2.78;;;1.67;;
30571;SDS011;17348;50.948;10.696;2022-09-12T11:21:19;2.15;;;1.45;;
30571;SDS011;17348;50.948;10.696;2022-09-12T11:24:41;6.22;;;2.30;;
30571;SDS011;17348;50.948;10.696;2022-09-12T11:28:14;4.45;;;2.20;;
30571;SDS011;17348;50.948;10.696;2022-09-12T11:31:40;4.32;;;1.88;;
30571;SDS011;17348;50.948;10.696;2022-09-12T11:35:11;5.60;;;1.92;;
30571;SDS011;17348;50.948;10.696;2022-09-12T11:41:59;6.32;;;2.10;;
30571;SDS011;17348;50.948;10.696;2022-09-12T11:45:08;2.47;;;1.50;;
30571;SDS011;17348;50.948;10.696;2022-09-12T11:48:18;9.13;;;1.50;;
30571;SDS011;17348;50.948;10.696;2022-09-12T11:51:28;1.77;;;1.25;;
30571;SDS011;17348;50.948;10.696;2022-09-12T11:54:38;3.00;;;1.52;;
30571;SDS011;17348;50.948;10.696;2022-09-12T11:57:44;6.03;;;1.38;;
30571;SDS011;17348;50.948;10.696;2022-09-12T12:00:51;2.85;;;1.38;;
30571;SDS011;17348;50.948;10.696;2022-09-12T12:03:56;3.38;;;1.42;;
30571;SDS011;17348;50.948;10.696;2022-09-12T12:07:02;2.50;;;1.40;;
30571;SDS011;17348;50.948;10.696;2022-09-12T12:10:20;4.03;;;1.73;;
30571;SDS011;17348;50.948;10.696;2022-09-12T12:13:27;7.33;;;1.73;;
30571;SDS011;17348;50.948;10.696;2022-09-12T12:16:32;2.30;;;1.20;;
30571;SDS011;17348;50.948;10.696;2022-09-12T12:19:37;3.13;;;2.00;;
30571;SDS011;17348;50.948;10.696;2022-09-12T12:22:40;2.20;;;1.40;;
30571;SDS011;17348;50.948;10.696;2022-09-12T12:25:54;3.92;;;1.60;;
30571;SDS011;17348;50.948;10.696;2022-09-12T12:28:58;4.25;;;2.28;;
30571;SDS011;17348;50.948;10.696;2022-09-12T12:35:36;2.25;;;1.52;;
30571;SDS011;17348;50.948;10.696;2022-09-12T12:38:40;3.28;;;1.63;;
30571;SDS011;17348;50.948;10.696;2022-09-12T12:41:44;2.90;;;1.52;;
30571;SDS011;17348;50.948;10.696;2022-09-12T12:44:47;2.50;;;1.65;;
30571;SDS011;17348;50.948;10.696;2022-09-12T12:47:50;4.50;;;1.63;;
30571;SDS011;17348;50.948;10.696;2022-09-12T12:57:57;4.70;;;1.65;;
30571;SDS011;17348;50.948;10.696;2022-09-12T13:01:02;3.95;;;1.60;;
30571;SDS011;17348;50.948;10.696;2022-09-12T13:04:15;3.65;;;1.63;;
30571;SDS011;17348;50.948;10.696;2022-09-12T13:07:22;5.53;;;1.83;;
30571;SDS011;17348;50.948;10.696;2022-09-12T13:10:28;3.90;;;1.40;;
30571;SDS011;17348;50.948;10.696;2022-09-12T13:13:34;3.83;;;1.52;;
30571;SDS011;17348;50.948;10.696;2022-09-12T13:16:39;3.20;;;1.42;;
30571;SDS011;17348;50.948;10.696;2022-09-12T13:20:00;3.92;;;1.52;;
30571;SDS011;17348;50.948;10.696;2022-09-12T13:23:22;2.35;;;1.40;;
30571;SDS011;17348;50.948;10.696;2022-09-12T13:26:25;3.65;;;1.15;;
30571;SDS011;17348;50.948;10.696;2022-09-12T13:29:29;3.85;;;1.40;;
30571;SDS011;17348;50.948;10.696;2022-09-12T13:32:31;3.03;;;1.85;;
30571;SDS011;17348;50.948;10.696;2022-09-12T13:35:36;2.90;;;1.48;;
30571;SDS011;17348;50.948;10.696;2022-09-12T13:38:50;3.40;;;1.52;;
30571;SDS011;17348;50.948;10.696;2022-09-12T13:42:02;3.05;;;1.58;;
30571;SDS011;17348;50.948;10.696;2022-09-12T13:45:22;3.28;;;2.20;;
30571;SDS011;17348;50.948;10.696;2022-09-12T13:48:27;3.00;;;1.77;;
30571;SDS011;17348;50.948;10.696;2022-09-12T13:51:29;2.65;;;1.48;;
30571;SDS011;17348;50.948;10.696;2022-09-12T13:54:32;2.35;;;1.45;;
30571;SDS011;17348;50.948;10.696;2022-09-12T13:57:37;3.03;;;1.70;;
30571;SDS011;17348;50.948;10.696;2022-09-12T14:00:42;2.47;;;1.20;;
30571;SDS011;17348;50.948;10.696;2022-09-12T14:03:47;1.98;;;1.33;;
30571;SDS011;17348;50.948;10.696;2022-09-12T14:07:10;1.20;;;1.10;;
30571;SDS011;17348;50.948;10.696;2022-09-12T14:10:18;5.25;;;1.33;;
30571;SDS011;17348;50.948;10.696;2022-09-12T14:13:24;6.18;;;1.02;;
30571;SDS011;17348;50.948;10.696;2022-09-12T14:16:31;3.17;;;1.50;;
30571;SDS011;17348;50.948;10.696;2022-09-12T14:19:40;2.22;;;1.50;;
30571;SDS011;17348;50.948;10.696;2022-09-12T14:22:42;3.78;;;1.52;;
30571;SDS011;17348;50.948;10.696;2022-09-12T14:25:45;8.00;;;2.00;;
30571;SDS011;17348;50.948;10.696;2022-09-12T14:28:49;2.13;;;1.27;;
30571;SDS011;17348;50.948;10.696;2022-09-12T14:32:00;2.50;;;1.40;;
30571;SDS011;17348;50.948;10.696;2022-09-12T14:35:16;7.47;;;1.27;;
30571;SDS011;17348;50.948;10.696;2022-09-12T14:38:21;5.40;;;1.10;;
30571;SDS011;17348;50.948;10.696;2022-09-12T14:41:26;2.35;;;1.40;;
30571;SDS011;17348;50.948;10.696;2022-09-12T14:44:31;4.78;;;1.30;;
30571;SDS011;17348;50.948;10.696;2022-09-12T14:47:37;4.13;;;1.73;;
30571;SDS011;17348;50.948;10.696;2022-09-12T14:50:41;2.45;;;1.50;;
30571;SDS011;17348;50.948;10.696;2022-09-12T14:53:46;6.15;;;1.38;;
30571;SDS011;17348;50.948;10.696;2022-09-12T14:56:52;1.90;;;1.40;;
30571;SDS011;17348;50.948;10.696;2022-09-12T15:00:04;3.05;;;1.33;;
30571;SDS011;17348;50.948;10.696;2022-09-12T15:03:22;4.28;;;1.58;;
30571;SDS011;17348;50.948;10.696;2022-09-12T15:06:27;2.58;;;1.40;;
30571;SDS011;17348;50.948;10.696;2022-09-12T15:09:30;2.15;;;1.23;;
30571;SDS011;17348;50.948;10.696;2022-09-12T15:12:33;8.27;;;1.60;;
30571;SDS011;17348;50.948;10.696;2022-09-12T15:15:35;2.15;;;1.30;;
30571;SDS011;17348;50.948;10.696;2022-09-12T15:18:40;3.83;;;1.30;;
30571;SDS011;17348;50.948;10.696;2022-09-12T15:21:42;3.28;;;1.42;;
30571;SDS011;17348;50.948;10.696;2022-09-12T15:24:44;3.03;;;1.45;;
30571;SDS011;17348;50.948;10.696;2022-09-12T15:27:47;2.55;;;1.60;;
30571;SDS011;17348;50.948;10.696;2022-09-12T15:30:52;3.63;;;1.38;;
30571;SDS011;17348;50.948;10.696;2022-09-12T15:33:58;5.80;;;1.20;;
30571;SDS011;17348;50.948;10.696;2022-09-12T15:37:01;4.68;;;1.58;;
30571;SDS011;17348;50.948;10.696;2022-09-12T15:40:06;2.90;;;1.08;;
30571;SDS011;17348;50.948;10.696;2022-09-12T15:43:10;1.85;;;1.50;;
30571;SDS011;17348;50.948;10.696;2022-09-12T15:46:13;2.60;;;1.20;;
30571;SDS011;17348;50.948;10.696;2022-09-12T15:49:18;4.97;;;1.20;;
30571;SDS011;17348;50.948;10.696;2022-09-12T15:52:20;11.80;;;1.65;;
30571;SDS011;17348;50.948;10.696;2022-09-12T15:55:24;2.72;;;1.40;;
30571;SDS011;17348;50.948;10.696;2022-09-12T15:58:29;1.95;;;1.30;;
30571;SDS011;17348;50.948;10.696;2022-09-12T16:01:31;2.33;;;1.35;;
30571;SDS011;17348;50.948;10.696;2022-09-12T16:04:34;2.38;;;1.38;;
30571;SDS011;17348;50.948;10.696;2022-09-12T16:07:37;4.75;;;1.40;;
30571;SDS011;17348;50.948;10.696;2022-09-12T16:10:40;2.58;;;1.13;;
30571;SDS011;17348;50.948;10.696;2022-09-12T16:13:44;6.47;;;1.77;;
30571;SDS011;17348;50.948;10.696;2022-09-12T16:16:50;3.00;;;1.30;;
30571;SDS011;17348;50.948;10.696;2022-09-12T16:19:55;2.40;;;1.30;;
30571;SDS011;17348;50.948;10.696;2022-09-12T16:22:57;1.75;;;0.93;;
30571;SDS011;17348;50.948;10.696;2022-09-12T16:26:00;3.33;;;1.30;;
30571;SDS011;17348;50.948;10.696;2022-09-12T16:29:03;2.17;;;1.40;;
30571;SDS011;17348;50.948;10.696;2022-09-12T16:32:06;3.15;;;1.38;;
30571;SDS011;17348;50.948;10.696;2022-09-12T16:35:09;2.58;;;1.23;;
30571;SDS011;17348;50.948;10.696;2022-09-12T16:38:12;3.75;;;1.48;;
30571;SDS011;17348;50.948;10.696;2022-09-12T16:41:15;2.95;;;1.70;;
30571;SDS011;17348;50.948;10.696;2022-09-12T16:44:18;4.32;;;1.60;;
30571;SDS011;17348;50.948;10.696;2022-09-12T16:47:20;5.03;;;1.77;;
30571;SDS011;17348;50.948;10.696;2022-09-12T16:50:24;3.17;;;1.75;;
30571;SDS011;17348;50.948;10.696;2022-09-12T16:53:28;6.47;;;1.90;;
30571;SDS011;17348;50.948;10.696;2022-09-12T16:56:31;4.05;;;2.00;;
30571;SDS011;17348;50.948;10.696;2022-09-12T16:59:33;2.92;;;1.63;;
30571;SDS011;17348;50.948;10.696;2022-09-12T17:02:35;4.45;;;2.10;;
30571;SDS011;17348;50.948;10.696;2022-09-12T17:05:39;3.00;;;2.13;;
30571;SDS011;17348;50.948;10.696;2022-09-12T17:08:42;8.73;;;2.13;;
30571;SDS011;17348;50.948;10.696;2022-09-12T17:11:46;13.70;;;3.75;;
30571;SDS011;17348;50.948;10.696;2022-09-12T17:14:49;12.00;;;2.28;;
30571;SDS011;17348;50.948;10.696;2022-09-12T17:17:52;10.82;;;2.75;;
30571;SDS011;17348;50.948;10.696;2022-09-12T17:20:56;10.23;;;2.38;;
30571;SDS011;17348;50.948;10.696;2022-09-12T17:23:58;10.75;;;2.53;;
30571;SDS011;17348;50.948;10.696;2022-09-12T17:27:00;8.07;;;2.38;;
30571;SDS011;17348;50.948;10.696;2022-09-12T17:30:03;8.18;;;2.85;;
30571;SDS011;17348;50.948;10.696;2022-09-12T17:33:06;13.52;;;3.03;;
30571;SDS011;17348;50.948;10.696;2022-09-12T17:36:10;11.07;;;2.78;;
30571;SDS011;17348;50.948;10.696;2022-09-12T17:39:14;18.05;;;2.60;;
30571;SDS011;17348;50.948;10.696;2022-09-12T17:42:16;6.95;;;2.60;;
30571;SDS011;17348;50.948;10.696;2022-09-12T17:45:19;4.60;;;2.25;;
30571;SDS011;17348;50.948;10.696;2022-09-12T17:48:21;8.45;;;3.50;;
30571;SDS011;17348;50.948;10.696;2022-09-12T17:51:25;6.97;;;3.08;;
30571;SDS011;17348;50.948;10.696;2022-09-12T17:54:30;7.25;;;2.90;;
30571;SDS011;17348;50.948;10.696;2022-09-12T17:57:32;4.30;;;2.60;;
30571;SDS011;17348;50.948;10.696;2022-09-12T18:00:34;7.28;;;2.92;;
30571;SDS011;17348;50.948;10.696;2022-09-12T18:03:54;5.85;;;2.25;;
30571;SDS011;17348;50.948;10.696;2022-09-12T18:06:59;5.88;;;3.13;;
30571;SDS011;17348;50.948;10.696;2022-09-12T18:10:02;4.75;;;2.60;;
30571;SDS011;17348;50.948;10.696;2022-09-12T18:13:04;6.75;;;2.63;;
30571;SDS011;17348;50.948;10.696;2022-09-12T18:16:07;2.53;;;1.95;;
30571;SDS011;17348;50.948;10.696;2022-09-12T18:19:11;4.75;;;2.10;;
30571;SDS011;17348;50.948;10.696;2022-09-12T18:22:15;5.63;;;2.35;;
30571;SDS011;17348;50.948;10.696;2022-09-12T18:25:18;3.83;;;2.05;;
30571;SDS011;17348;50.948;10.696;2022-09-12T18:28:21;8.13;;;2.83;;
30571;SDS011;17348;50.948;10.696;2022-09-12T18:31:25;4.55;;;2.10;;
30571;SDS011;17348;50.948;10.696;2022-09-12T18:34:28;5.00;;;2.13;;
30571;SDS011;17348;50.948;10.696;2022-09-12T18:37:32;9.52;;;2.53;;